Mari Lampton — WDE3648 — position and weather

sailwx.info

Track history (hours):
 
Tides and Currents Weather Stations Pressure Air Temp Water Temp Dewpoint Dewpoint Depression Visibility Wind Speed Wind Dir Waves Ship Positions

Mari Lampton

Owner: MAgnolia Marine Transport Company, Vicksburg, MS. More information available from US FCC via Universal Licensing System and Coast Guard Vessel Documentation Center.

Last reported at 2017-Apr-04 12:38 UTC. Time now 2017-Apr-23 05:37 UTC.
Position N 30°29' W 091°12'.
Warning: this ship's position is 18 days out of date.

Length 34 m.

Type: Towing. MMSI: 367342210.

Date/timePositionNaut miles runAvg speedWind from/ knotsBaromVisibWave heightAir tempDewpointWater temp
2017-Apr-04 12:38N 30°29' W 091°12'0 0.0
2017-Apr-04 12:27N 30°29' W 091°12'0 0.0
2017-Apr-04 11:37N 30°29' W 091°12'0 0.0
2017-Apr-04 11:21N 30°29' W 091°12'0 0.0
2017-Apr-04 10:58N 30°29' W 091°12'0 0.0
2017-Apr-04 08:58N 30°29' W 091°12'0 0.0
2017-Apr-04 08:30N 30°29' W 091°12'0 0.0
2017-Apr-04 08:00N 30°29' W 091°12'0 0.0
2017-Apr-04 07:30N 30°29' W 091°12'0 0.0
2017-Apr-04 06:59N 30°29' W 091°12'97 2.4
2017-Apr-02 15:05N 32°06' W 091°06'1 8.8
2017-Apr-02 15:00N 32°07' W 091°06'7 7.0
2017-Apr-02 14:00N 32°11' W 090°60'5 9.6
2017-Apr-02 13:30N 32°16' W 090°58'4 7.5
2017-Apr-02 13:00N 32°18' W 090°55'0 0.1
2017-Apr-02 12:30N 32°18' W 090°55'0 0.0
2017-Apr-02 12:00N 32°18' W 090°55'0 0.4
2017-Apr-02 11:30N 32°18' W 090°55'0 0.1
2017-Apr-02 11:00N 32°18' W 090°55'0 0.0
2017-Apr-02 10:30N 32°18' W 090°55'0 0.0
2017-Apr-02 10:00N 32°18' W 090°55'0 0.0
2017-Apr-02 09:30N 32°18' W 090°55'0 0.1
2017-Apr-02 09:00N 32°18' W 090°55'1 1.7
2017-Apr-02 08:30N 32°19' W 090°54'3 5.7
2017-Apr-02 08:00N 32°21' W 090°57'3 6.8
2017-Apr-02 07:30N 32°23' W 090°60'4 7.4
2017-Apr-02 07:00N 32°26' W 091°02'5 9.0
2017-Apr-02 06:30N 32°28' W 091°07'4 8.8
2017-Apr-02 06:00N 32°33' W 091°06'4 8.9
2017-Apr-02 05:30N 32°36' W 091°09'  
Track history (hours):
 
Tides and Currents Weather Stations Pressure Air Temp Water Temp Dewpoint Dewpoint Depression Visibility Wind Speed Wind Dir Waves Ship Positions

Mari Lampton

Owner: MAgnolia Marine Transport Company, Vicksburg, MS. More information available from US FCC via Universal Licensing System and Coast Guard Vessel Documentation Center.

Last reported at 2017-Apr-04 12:38 UTC. Time now 2017-Apr-23 05:37 UTC.
Position N 30°29' W 091°12'.
Warning: this ship's position is 18 days out of date.

Length 34 m.

Type: Towing. MMSI: 367342210.

Date/timePositionNaut miles runAvg speedWind from/ knotsBaromVisibWave heightAir tempDewpointWater temp
2017-Apr-04 12:38N 30°29' W 091°12'0 0.0
2017-Apr-04 12:27N 30°29' W 091°12'0 0.0
2017-Apr-04 11:37N 30°29' W 091°12'0 0.0
2017-Apr-04 11:21N 30°29' W 091°12'0 0.0
2017-Apr-04 10:58N 30°29' W 091°12'0 0.0
2017-Apr-04 08:58N 30°29' W 091°12'0 0.0
2017-Apr-04 08:30N 30°29' W 091°12'0 0.0
2017-Apr-04 08:00N 30°29' W 091°12'0 0.0
2017-Apr-04 07:30N 30°29' W 091°12'0 0.0
2017-Apr-04 06:59N 30°29' W 091°12'97 2.4
2017-Apr-02 15:05N 32°06' W 091°06'1 8.8
2017-Apr-02 15:00N 32°07' W 091°06'7 7.0
2017-Apr-02 14:00N 32°11' W 090°60'5 9.6
2017-Apr-02 13:30N 32°16' W 090°58'4 7.5
2017-Apr-02 13:00N 32°18' W 090°55'0 0.1
2017-Apr-02 12:30N 32°18' W 090°55'0 0.0
2017-Apr-02 12:00N 32°18' W 090°55'0 0.4
2017-Apr-02 11:30N 32°18' W 090°55'0 0.1
2017-Apr-02 11:00N 32°18' W 090°55'0 0.0
2017-Apr-02 10:30N 32°18' W 090°55'0 0.0
2017-Apr-02 10:00N 32°18' W 090°55'0 0.0
2017-Apr-02 09:30N 32°18' W 090°55'0 0.1
2017-Apr-02 09:00N 32°18' W 090°55'1 1.7
2017-Apr-02 08:30N 32°19' W 090°54'3 5.7
2017-Apr-02 08:00N 32°21' W 090°57'3 6.8
2017-Apr-02 07:30N 32°23' W 090°60'4 7.4
2017-Apr-02 07:00N 32°26' W 091°02'5 9.0
2017-Apr-02 06:30N 32°28' W 091°07'4 8.8
2017-Apr-02 06:00N 32°33' W 091°06'4 8.9
2017-Apr-02 05:30N 32°36' W 091°09'  

Dump ship's entire track history